createdAt,value
2023-01-09T00:00:57.737Z,6.66
2023-01-09T00:01:57.782Z,6.63
2023-01-09T00:02:57.852Z,6.59
2023-01-09T00:03:57.906Z,6.65
2023-01-09T00:04:57.909Z,6.61
2023-01-09T00:05:57.956Z,6.65
2023-01-09T00:06:57.991Z,6.65
2023-01-09T00:07:58.074Z,6.63
2023-01-09T00:08:58.074Z,6.63
2023-01-09T00:09:58.129Z,6.72
2023-01-09T00:10:58.173Z,6.68
2023-01-09T00:11:58.217Z,6.65
2023-01-09T00:12:58.273Z,6.62
2023-01-09T00:13:58.293Z,6.59
2023-01-09T00:14:58.368Z,6.63
2023-01-09T00:15:58.389Z,6.68
2023-01-09T00:16:58.481Z,6.68
2023-01-09T00:17:58.467Z,6.68
2023-01-09T00:18:58.513Z,6.71
2023-01-09T00:19:58.586Z,6.76
2023-01-09T00:20:58.604Z,6.72
2023-01-09T00:21:58.661Z,6.69
2023-01-09T00:22:58.683Z,6.71
2023-01-09T00:23:58.737Z,6.72
2023-01-09T00:24:58.805Z,6.65
2023-01-09T00:25:58.823Z,6.73
2023-01-09T00:26:58.859Z,6.77
2023-01-09T00:27:58.909Z,6.69
2023-01-09T00:28:58.953Z,6.72
2023-01-09T00:29:59.004Z,6.76
2023-01-09T00:30:59.092Z,6.73
2023-01-09T00:31:59.106Z,6.69
2023-01-09T00:32:59.121Z,6.69
2023-01-09T00:33:59.162Z,6.80
2023-01-09T00:34:59.225Z,6.65
2023-01-09T00:35:59.247Z,6.65
2023-01-09T00:36:59.316Z,6.73
2023-01-09T00:37:59.405Z,6.68
2023-01-09T00:38:59.388Z,6.63
2023-01-09T00:39:59.432Z,6.63
2023-01-09T00:41:00.041Z,6.62
2023-01-09T00:41:59.529Z,6.72
2023-01-09T00:42:59.596Z,6.73
2023-01-09T00:43:59.594Z,6.73
2023-01-09T00:44:59.643Z,6.73
2023-01-09T00:45:59.718Z,6.71
2023-01-09T00:46:59.778Z,6.68
2023-01-09T00:47:59.770Z,6.72
2023-01-09T00:48:59.830Z,6.69
2023-01-09T00:49:59.876Z,6.66
2023-01-09T00:50:59.910Z,6.68
2023-01-09T00:51:59.969Z,6.66
2023-01-09T00:52:59.995Z,6.68
2023-01-09T00:54:00.049Z,6.65
2023-01-09T00:55:00.083Z,6.77
2023-01-09T00:56:00.159Z,6.69
2023-01-09T00:57:00.173Z,6.71
2023-01-09T00:58:00.199Z,6.65
2023-01-09T00:59:00.253Z,6.69
2023-01-09T01:00:00.301Z,6.65
2023-01-09T01:01:00.501Z,6.65
2023-01-09T01:02:00.532Z,6.72
2023-01-09T01:03:00.458Z,6.72
2023-01-09T01:04:00.503Z,6.73
2023-01-09T01:05:00.504Z,6.68
2023-01-09T01:06:00.549Z,6.72
2023-01-09T01:07:00.595Z,6.68
2023-01-09T01:08:00.644Z,6.76
2023-01-09T01:09:00.723Z,6.73
2023-01-09T01:10:00.734Z,6.79
2023-01-09T01:11:00.766Z,6.77
2023-01-09T01:12:00.815Z,6.79
2023-01-09T01:13:00.853Z,6.89
2023-01-09T01:14:00.931Z,6.86
2023-01-09T01:15:00.956Z,6.83
2023-01-09T01:16:00.990Z,6.79
2023-01-09T01:17:01.082Z,6.81
2023-01-09T01:18:01.075Z,6.73
2023-01-09T01:19:01.143Z,6.81
2023-01-09T01:20:01.165Z,6.79
2023-01-09T01:21:01.227Z,6.73
2023-01-09T01:22:01.287Z,6.80
2023-01-09T01:23:01.308Z,6.80
2023-01-09T01:24:01.338Z,6.80
2023-01-09T01:25:01.404Z,6.81
2023-01-09T01:26:01.419Z,6.79
2023-01-09T01:27:01.483Z,6.73
2023-01-09T01:28:01.513Z,6.80
2023-01-09T01:29:01.545Z,6.80
2023-01-09T01:30:01.598Z,6.80
2023-01-09T01:31:02.580Z,6.79
2023-01-09T01:32:01.699Z,6.87
2023-01-09T01:33:01.722Z,6.86
2023-01-09T01:34:01.775Z,6.84
2023-01-09T01:35:01.810Z,6.87
2023-01-09T01:36:01.863Z,6.87
2023-01-09T01:37:01.919Z,6.84
2023-01-09T01:38:01.950Z,6.80
2023-01-09T01:39:01.987Z,6.83
2023-01-09T01:40:02.055Z,6.84
2023-01-09T01:41:02.073Z,6.80
2023-01-09T01:42:02.158Z,6.81
2023-01-09T01:43:02.170Z,6.80
2023-01-09T01:44:02.207Z,6.79
2023-01-09T01:45:02.276Z,6.79
2023-01-09T01:46:02.338Z,6.77
2023-01-09T01:47:02.369Z,6.72
2023-01-09T01:48:02.396Z,6.80
2023-01-09T01:49:03.057Z,6.83
2023-01-09T01:50:02.486Z,6.80
2023-01-09T01:51:02.513Z,6.80
2023-01-09T01:52:02.555Z,6.72
2023-01-09T01:53:02.623Z,6.72
2023-01-09T01:54:02.665Z,6.71
2023-01-09T01:55:02.716Z,6.72
2023-01-09T01:56:02.731Z,6.76
2023-01-09T01:57:02.794Z,6.77
2023-01-09T01:58:02.811Z,6.69
2023-01-09T01:59:02.885Z,6.76
2023-01-09T02:00:02.920Z,6.81
2023-01-09T02:01:03.033Z,6.79
2023-01-09T02:02:03.166Z,6.79
2023-01-09T02:03:03.099Z,6.81
2023-01-09T02:04:03.079Z,6.80
2023-01-09T02:05:03.139Z,6.77
2023-01-09T02:06:03.181Z,6.81
2023-01-09T02:07:03.226Z,6.73
2023-01-09T02:08:04.051Z,6.76
2023-01-09T02:09:03.295Z,6.77
2023-01-09T02:10:03.345Z,6.87
2023-01-09T02:11:03.374Z,7.07
2023-01-09T02:12:03.444Z,7.12
2023-01-09T02:13:03.467Z,7.16
2023-01-09T02:14:03.537Z,7.17
2023-01-09T02:15:03.592Z,7.16
2023-01-09T02:16:03.629Z,7.08
2023-01-09T02:17:03.646Z,7.13
2023-01-09T02:18:03.682Z,7.09
2023-01-09T02:19:04.550Z,7.13
2023-01-09T02:20:03.792Z,7.12
2023-01-09T02:21:03.826Z,7.20
2023-01-09T02:22:03.863Z,7.13
2023-01-09T02:23:03.910Z,7.26
2023-01-09T02:24:03.944Z,7.23
2023-01-09T02:25:04.027Z,7.26
2023-01-09T02:26:04.028Z,7.34
2023-01-09T02:27:04.093Z,7.42
2023-01-09T02:28:04.121Z,7.53
2023-01-09T02:29:04.191Z,7.47
2023-01-09T02:30:04.216Z,7.45
2023-01-09T02:31:04.247Z,7.47
2023-01-09T02:32:04.311Z,7.44
2023-01-09T02:33:04.343Z,7.42
2023-01-09T02:34:04.388Z,7.41
2023-01-09T02:35:04.422Z,7.47
2023-01-09T02:36:04.464Z,7.62
2023-01-09T02:37:04.535Z,7.60
2023-01-09T02:38:04.570Z,7.59
2023-01-09T02:39:04.606Z,7.63
2023-01-09T02:40:04.643Z,7.84
2023-01-09T02:41:04.736Z,7.87
2023-01-09T02:42:04.737Z,7.99
2023-01-09T02:43:04.776Z,7.94
2023-01-09T02:44:04.816Z,8.10
2023-01-09T02:45:04.869Z,8.03
2023-01-09T02:46:04.983Z,8.17
2023-01-09T02:47:04.976Z,8.15
2023-01-09T02:48:04.998Z,8.11
2023-01-09T02:49:05.036Z,8.15
2023-01-09T02:50:05.095Z,8.10
2023-01-09T02:51:05.147Z,8.18
2023-01-09T02:52:05.175Z,8.14
2023-01-09T02:53:05.231Z,8.12
2023-01-09T02:54:05.271Z,8.11
2023-01-09T02:55:05.301Z,8.15
2023-01-09T02:56:05.339Z,8.18
2023-01-09T02:57:05.439Z,8.11
2023-01-09T02:58:05.431Z,8.11
2023-01-09T02:59:05.506Z,8.14
2023-01-09T03:00:05.530Z,8.08
2023-01-09T03:01:05.692Z,8.00
2023-01-09T03:02:05.754Z,8.10
2023-01-09T03:03:05.700Z,8.11
2023-01-09T03:04:05.726Z,8.14
2023-01-09T03:05:05.809Z,8.10
2023-01-09T03:06:05.779Z,8.12
2023-01-09T03:07:05.832Z,8.15
2023-01-09T03:08:05.872Z,8.10
2023-01-09T03:09:05.917Z,8.15
2023-01-09T03:10:05.983Z,8.15
2023-01-09T03:11:06.004Z,8.12
2023-01-09T03:12:06.046Z,8.18
2023-01-09T03:13:07.061Z,8.15
2023-01-09T03:14:06.134Z,8.17
2023-01-09T03:15:06.203Z,8.12
2023-01-09T03:16:06.482Z,8.11
2023-01-09T03:17:06.256Z,8.14
2023-01-09T03:18:06.321Z,8.12
2023-01-09T03:19:06.353Z,8.11
2023-01-09T03:20:06.398Z,8.15
2023-01-09T03:21:06.434Z,8.17
2023-01-09T03:22:06.491Z,8.15
2023-01-09T03:23:06.544Z,8.10
2023-01-09T03:24:06.563Z,8.07
2023-01-09T03:25:06.609Z,8.07
2023-01-09T03:26:06.651Z,8.03
2023-01-09T03:27:06.711Z,8.07
2023-01-09T03:28:06.775Z,8.11
2023-01-09T03:29:06.781Z,8.12
2023-01-09T03:30:06.831Z,8.08
2023-01-09T03:31:06.946Z,8.10
2023-01-09T03:32:06.928Z,8.08
2023-01-09T03:33:06.960Z,8.08
2023-01-09T03:34:07.011Z,7.99
2023-01-09T03:35:07.047Z,8.07
2023-01-09T03:36:07.124Z,8.07
2023-01-09T03:37:07.131Z,7.99
2023-01-09T03:38:08.040Z,7.96
2023-01-09T03:39:07.242Z,7.92
2023-01-09T03:40:07.279Z,7.92
2023-01-09T03:41:07.322Z,7.96
2023-01-09T03:42:07.361Z,7.96
2023-01-09T03:43:07.426Z,7.89
2023-01-09T03:44:07.470Z,7.87
2023-01-09T03:45:07.499Z,7.77
2023-01-09T03:46:07.579Z,7.77
2023-01-09T03:47:07.605Z,7.71
2023-01-09T03:48:07.621Z,7.66
2023-01-09T03:49:08.559Z,7.62
2023-01-09T03:50:07.713Z,7.56
2023-01-09T03:51:07.772Z,7.47
2023-01-09T03:52:07.794Z,7.47
2023-01-09T03:53:07.829Z,7.45
2023-01-09T03:54:07.888Z,7.47
2023-01-09T03:55:08.571Z,7.49
2023-01-09T03:56:07.987Z,7.49
2023-01-09T03:57:08.011Z,7.47
2023-01-09T03:58:08.049Z,7.45
2023-01-09T03:59:08.090Z,7.41
2023-01-09T04:00:08.154Z,7.40
2023-01-09T04:01:08.398Z,7.40
2023-01-09T04:02:09.174Z,7.31
2023-01-09T04:03:08.264Z,7.37
2023-01-09T04:04:08.376Z,7.29
2023-01-09T04:05:08.358Z,7.27
2023-01-09T04:06:08.421Z,7.29
2023-01-09T04:07:08.504Z,7.23
2023-01-09T04:08:08.487Z,7.31
2023-01-09T04:09:08.521Z,7.32
2023-01-09T04:10:08.573Z,7.29
2023-01-09T04:11:08.637Z,7.22
2023-01-09T04:12:18.640Z,7.34
2023-01-09T04:13:08.700Z,7.22
2023-01-09T04:14:08.741Z,7.24
2023-01-09T04:15:08.795Z,7.12
2023-01-09T04:16:08.870Z,7.24
2023-01-09T04:17:08.876Z,7.16
2023-01-09T04:18:08.914Z,7.15
2023-01-09T04:19:08.947Z,7.13
2023-01-09T04:20:08.997Z,7.02
2023-01-09T04:21:09.062Z,7.05
2023-01-09T04:22:09.126Z,6.95
2023-01-09T04:23:09.148Z,6.90
2023-01-09T04:24:09.172Z,6.99
2023-01-09T04:25:10.109Z,6.94
2023-01-09T04:26:09.248Z,6.89
2023-01-09T04:27:09.315Z,6.91
2023-01-09T04:28:09.362Z,6.87
2023-01-09T04:29:09.409Z,6.79
2023-01-09T04:30:09.438Z,6.71
2023-01-09T04:31:09.469Z,6.76
2023-01-09T04:32:09.511Z,6.73
2023-01-09T04:33:09.554Z,6.71
2023-01-09T04:34:09.618Z,6.71
2023-01-09T04:35:10.615Z,6.72
2023-01-09T04:36:09.689Z,6.76
2023-01-09T04:37:09.718Z,6.68
2023-01-09T04:38:09.759Z,6.77
2023-01-09T04:39:09.822Z,6.65
2023-01-09T04:40:09.847Z,6.66
2023-01-09T04:41:09.914Z,6.66
2023-01-09T04:42:09.948Z,6.68
2023-01-09T04:43:09.980Z,6.65
2023-01-09T04:44:10.030Z,6.71
2023-01-09T04:45:10.118Z,6.69
2023-01-09T04:46:10.187Z,6.72
2023-01-09T04:47:10.148Z,6.77
2023-01-09T04:48:10.188Z,6.76
2023-01-09T04:49:10.228Z,6.69
2023-01-09T04:50:10.300Z,6.76
2023-01-09T04:51:10.315Z,6.69
2023-01-09T04:52:10.357Z,6.73
2023-01-09T04:53:10.436Z,6.72
2023-01-09T04:54:10.449Z,6.72
2023-01-09T04:55:10.488Z,6.68
2023-01-09T04:56:10.530Z,6.63
2023-01-09T04:57:10.569Z,6.62
2023-01-09T04:58:10.668Z,6.65
2023-01-09T04:59:10.663Z,6.66
2023-01-09T05:00:10.701Z,6.63
2023-01-09T05:01:10.829Z,6.62
2023-01-09T05:02:11.031Z,6.58
2023-01-09T05:03:10.824Z,6.63
2023-01-09T05:04:10.907Z,6.65
2023-01-09T05:05:11.806Z,6.62
2023-01-09T05:06:10.988Z,6.71
2023-01-09T05:07:10.997Z,6.65
2023-01-09T05:08:11.039Z,6.63
2023-01-09T05:09:11.087Z,6.62
2023-01-09T05:10:11.140Z,6.66
2023-01-09T05:11:11.208Z,6.73
2023-01-09T05:12:11.215Z,6.79
2023-01-09T05:13:12.104Z,6.79
2023-01-09T05:14:11.309Z,6.83
2023-01-09T05:15:11.375Z,6.81
2023-01-09T05:16:11.436Z,6.77
2023-01-09T05:17:11.454Z,6.83
2023-01-09T05:18:11.477Z,6.84
2023-01-09T05:19:12.031Z,6.89
2023-01-09T05:20:11.553Z,6.76
2023-01-09T05:21:11.592Z,6.80
2023-01-09T05:22:11.667Z,6.80
2023-01-09T05:23:11.702Z,6.79
2023-01-09T05:24:11.717Z,6.87
2023-01-09T05:25:11.764Z,6.81
2023-01-09T05:26:11.814Z,6.80
2023-01-09T05:27:11.855Z,6.77
2023-01-09T05:28:11.917Z,6.80
2023-01-09T05:29:11.946Z,6.86
2023-01-09T05:30:13.525Z,6.87
2023-01-09T05:31:12.030Z,6.89
2023-01-09T05:32:12.069Z,6.97
2023-01-09T05:33:12.132Z,6.99
2023-01-09T05:34:13.107Z,7.02
2023-01-09T05:35:12.208Z,7.01
2023-01-09T05:36:12.270Z,7.09
2023-01-09T05:37:12.279Z,7.07
2023-01-09T05:38:12.319Z,7.08
2023-01-09T05:39:12.364Z,7.12
2023-01-09T05:40:12.409Z,7.13
2023-01-09T05:41:12.487Z,7.13
2023-01-09T05:42:12.500Z,7.12
2023-01-09T05:43:12.536Z,7.09
2023-01-09T05:44:12.590Z,7.12
2023-01-09T05:45:13.625Z,7.12
2023-01-09T05:46:12.694Z,7.02
2023-01-09T05:47:12.714Z,7.07
2023-01-09T05:48:12.748Z,6.90
2023-01-09T05:49:12.786Z,6.95
2023-01-09T05:50:13.613Z,6.91
2023-01-09T05:51:12.922Z,6.89
2023-01-09T05:52:12.927Z,6.87
2023-01-09T05:53:12.991Z,6.84
2023-01-09T05:54:13.003Z,6.90
2023-01-09T05:55:13.064Z,6.86
2023-01-09T05:56:13.095Z,6.86
2023-01-09T05:57:13.152Z,6.90
2023-01-09T05:58:13.203Z,6.95
2023-01-09T05:59:13.221Z,6.94
2023-01-09T06:00:13.258Z,6.90
2023-01-09T06:01:13.355Z,6.91
2023-01-09T06:02:13.488Z,6.89
2023-01-09T06:03:13.458Z,6.81
2023-01-09T06:04:13.434Z,6.83
2023-01-09T06:05:13.505Z,6.77
2023-01-09T06:06:14.108Z,6.72
2023-01-09T06:07:18.017Z,6.80
2023-01-09T06:08:13.627Z,6.83
2023-01-09T06:09:13.667Z,6.79
2023-01-09T06:10:13.711Z,6.81
2023-01-09T06:11:13.733Z,6.83
2023-01-09T06:12:13.793Z,6.83
2023-01-09T06:13:13.817Z,6.76
2023-01-09T06:14:13.887Z,6.79
2023-01-09T06:15:14.615Z,6.77
2023-01-09T06:16:14.086Z,6.89
2023-01-09T06:17:13.992Z,6.95
2023-01-09T06:18:14.032Z,6.86
2023-01-09T06:19:14.105Z,6.94
2023-01-09T06:20:14.117Z,6.95
2023-01-09T06:21:14.186Z,6.87
2023-01-09T06:22:14.210Z,6.84
2023-01-09T06:23:14.255Z,6.86
2023-01-09T06:24:14.296Z,6.90
2023-01-09T06:25:14.342Z,6.94
2023-01-09T06:26:14.403Z,6.99
2023-01-09T06:27:14.416Z,6.89
2023-01-09T06:28:14.498Z,6.95
2023-01-09T06:29:14.502Z,6.87
2023-01-09T06:30:14.546Z,6.73
2023-01-09T06:31:14.639Z,6.86
2023-01-09T06:32:14.630Z,6.77
2023-01-09T06:33:14.702Z,6.77
2023-01-09T06:34:14.743Z,6.83
2023-01-09T06:35:14.804Z,6.79
2023-01-09T06:36:14.812Z,6.77
2023-01-09T06:37:15.611Z,6.80
2023-01-09T06:38:14.893Z,6.72
2023-01-09T06:39:14.929Z,6.65
2023-01-09T06:40:15.004Z,6.63
2023-01-09T06:41:15.022Z,6.61
2023-01-09T06:42:15.063Z,6.66
2023-01-09T06:43:15.110Z,6.62
2023-01-09T06:44:15.161Z,6.56
2023-01-09T06:45:15.228Z,6.62
2023-01-09T06:46:16.159Z,6.50
2023-01-09T06:47:15.291Z,6.58
2023-01-09T06:48:15.320Z,6.51
2023-01-09T06:49:15.356Z,6.53
2023-01-09T06:50:15.430Z,6.59
2023-01-09T06:51:15.446Z,6.51
2023-01-09T06:52:15.507Z,6.56
2023-01-09T06:53:15.528Z,6.54
2023-01-09T06:54:15.569Z,6.50
2023-01-09T06:55:16.119Z,6.53
2023-01-09T06:56:15.684Z,6.63
2023-01-09T06:57:15.698Z,6.73
2023-01-09T06:58:15.739Z,6.71
2023-01-09T06:59:15.796Z,6.77
2023-01-09T07:00:16.611Z,6.71
2023-01-09T07:01:15.984Z,6.80
2023-01-09T07:02:15.954Z,6.77
2023-01-09T07:03:15.986Z,6.84
2023-01-09T07:04:16.042Z,6.72
2023-01-09T07:05:16.048Z,6.81
2023-01-09T07:06:16.097Z,6.71
2023-01-09T07:07:16.142Z,6.63
2023-01-09T07:08:16.199Z,6.63
2023-01-09T07:09:16.213Z,6.66
2023-01-09T07:10:16.278Z,6.53
2023-01-09T07:11:16.320Z,6.51
2023-01-09T07:12:16.353Z,6.56
2023-01-09T07:13:16.414Z,6.51
2023-01-09T07:14:16.440Z,6.46
2023-01-09T07:15:16.481Z,6.51
2023-01-09T07:16:16.560Z,6.47
2023-01-09T07:17:16.553Z,6.41
2023-01-09T07:18:16.608Z,6.50
2023-01-09T07:19:16.664Z,6.40
2023-01-09T07:20:16.689Z,6.30
2023-01-09T07:21:16.751Z,6.33
2023-01-09T07:22:16.771Z,6.33
2023-01-09T07:23:16.817Z,6.35
2023-01-09T07:24:16.861Z,6.32
2023-01-09T07:25:16.899Z,6.32
2023-01-09T07:26:16.963Z,6.36
2023-01-09T07:27:17.010Z,6.35
2023-01-09T07:28:17.022Z,6.38
2023-01-09T07:29:17.078Z,6.38
2023-01-09T07:30:17.113Z,6.43
2023-01-09T07:31:17.207Z,6.28
2023-01-09T07:32:17.216Z,6.38
2023-01-09T07:33:17.252Z,6.33
2023-01-09T07:34:17.294Z,6.38
2023-01-09T07:35:17.336Z,6.35
2023-01-09T07:36:17.380Z,6.46
2023-01-09T07:37:17.436Z,6.40
2023-01-09T07:38:17.457Z,6.40
2023-01-09T07:39:18.126Z,6.56
2023-01-09T07:40:17.543Z,6.56
2023-01-09T07:41:17.574Z,6.53
2023-01-09T07:42:17.648Z,6.59
2023-01-09T07:43:17.669Z,6.61
2023-01-09T07:44:17.708Z,6.69
2023-01-09T07:45:17.767Z,6.62
2023-01-09T07:46:18.673Z,6.61
2023-01-09T07:47:17.865Z,6.63
2023-01-09T07:48:17.883Z,6.72
2023-01-09T07:49:17.915Z,6.62
2023-01-09T07:50:17.968Z,6.69
2023-01-09T07:51:18.007Z,6.68
2023-01-09T07:52:18.078Z,6.71
2023-01-09T07:53:18.094Z,6.76
2023-01-09T07:54:18.138Z,6.73
2023-01-09T07:55:18.194Z,6.71
2023-01-09T07:56:18.214Z,6.71
2023-01-09T07:57:18.259Z,6.79
2023-01-09T07:58:18.333Z,6.77
2023-01-09T07:59:18.350Z,6.80
2023-01-09T08:00:18.398Z,6.89
2023-01-09T08:01:18.499Z,6.81
2023-01-09T08:02:18.548Z,6.95
2023-01-09T08:03:18.585Z,6.91
2023-01-09T08:04:18.573Z,6.94
2023-01-09T08:05:18.610Z,6.95
2023-01-09T08:06:18.654Z,7.07
2023-01-09T08:07:18.693Z,7.07
2023-01-09T08:08:18.753Z,7.12
2023-01-09T08:09:19.632Z,7.15
2023-01-09T08:10:18.821Z,7.16
2023-01-09T08:11:18.859Z,7.08
2023-01-09T08:12:18.910Z,7.19
2023-01-09T08:13:18.981Z,7.12
2023-01-09T08:14:19.636Z,7.22
2023-01-09T08:15:19.640Z,7.16
2023-01-09T08:16:19.093Z,7.17
2023-01-09T08:17:19.119Z,7.22
2023-01-09T08:18:19.196Z,7.26
2023-01-09T08:19:19.211Z,7.19
2023-01-09T08:20:19.254Z,7.29
2023-01-09T08:21:19.288Z,7.29
2023-01-09T08:22:19.327Z,7.23
2023-01-09T08:23:19.403Z,7.29
2023-01-09T08:24:19.457Z,7.31
2023-01-09T08:25:19.536Z,7.27
2023-01-09T08:26:19.528Z,7.29
2023-01-09T08:27:19.561Z,7.24
2023-01-09T08:28:19.609Z,7.23
2023-01-09T08:29:19.688Z,7.32
2023-01-09T08:30:19.679Z,7.24
2023-01-09T08:31:19.790Z,7.29
2023-01-09T08:32:19.800Z,7.27
2023-01-09T08:33:19.822Z,7.26
2023-01-09T08:34:19.932Z,7.42
2023-01-09T08:35:19.908Z,7.42
2023-01-09T08:36:19.993Z,7.44
2023-01-09T08:37:20.021Z,7.44
2023-01-09T08:38:20.040Z,7.41
2023-01-09T08:39:20.083Z,7.50
2023-01-09T08:40:20.132Z,7.50
2023-01-09T08:41:20.176Z,7.53
2023-01-09T08:42:20.242Z,7.44
2023-01-09T08:43:20.259Z,7.56
2023-01-09T08:44:20.319Z,7.59
2023-01-09T08:45:21.127Z,7.63
2023-01-09T08:46:20.417Z,7.52
2023-01-09T08:47:20.440Z,7.62
2023-01-09T08:48:20.486Z,7.69
2023-01-09T08:49:20.551Z,7.77
2023-01-09T08:50:20.573Z,7.78
2023-01-09T08:51:20.613Z,7.79
2023-01-09T08:52:20.650Z,7.79
2023-01-09T08:53:20.693Z,7.78
2023-01-09T08:54:20.760Z,7.84
2023-01-09T08:55:20.781Z,7.84
2023-01-09T08:56:20.827Z,7.74
2023-01-09T08:57:20.890Z,7.74
2023-01-09T08:58:21.641Z,7.78
2023-01-09T08:59:20.966Z,7.77
2023-01-09T09:00:21.048Z,7.78
2023-01-09T09:01:21.127Z,7.87
2023-01-09T09:02:21.156Z,7.84
2023-01-09T09:03:21.159Z,7.87
2023-01-09T09:04:21.188Z,7.85
2023-01-09T09:05:21.235Z,7.79
2023-01-09T09:06:21.286Z,7.81
2023-01-09T09:07:21.316Z,7.78
2023-01-09T09:08:21.399Z,7.87
2023-01-09T09:09:21.431Z,7.84
2023-01-09T09:10:21.478Z,7.82
2023-01-09T09:11:21.534Z,7.84
2023-01-09T09:12:21.544Z,7.87
2023-01-09T09:13:21.599Z,7.87
2023-01-09T09:14:21.630Z,7.96
2023-01-09T09:15:21.672Z,7.89
2023-01-09T09:16:21.790Z,7.97
2023-01-09T09:17:21.804Z,7.99
2023-01-09T09:18:22.627Z,8.00
2023-01-09T09:19:21.847Z,7.96
2023-01-09T09:20:21.903Z,8.11
2023-01-09T09:21:21.956Z,8.07
2023-01-09T09:22:22.638Z,8.04
2023-01-09T09:23:22.030Z,8.03
2023-01-09T09:24:22.062Z,8.02
2023-01-09T09:25:22.636Z,8.07
2023-01-09T09:26:22.152Z,8.08
2023-01-09T09:27:22.233Z,7.97
2023-01-09T09:28:22.257Z,8.12
2023-01-09T09:29:22.293Z,8.11
2023-01-09T09:30:23.151Z,8.15
2023-01-09T09:31:22.453Z,8.15
2023-01-09T09:32:22.425Z,8.15
2023-01-09T09:33:22.488Z,8.14
2023-01-09T09:34:22.513Z,8.10
2023-01-09T09:35:22.597Z,8.26
2023-01-09T09:36:22.604Z,8.17
2023-01-09T09:37:23.644Z,8.10
2023-01-09T09:38:22.738Z,8.11
2023-01-09T09:39:33.678Z,8.28
2023-01-09T09:40:33.220Z,8.18
2023-01-09T09:41:22.844Z,8.17
2023-01-09T09:42:22.865Z,8.22
2023-01-09T09:43:22.938Z,8.30
2023-01-09T09:44:22.949Z,8.32
2023-01-09T09:45:23.032Z,8.35
2023-01-09T09:46:23.082Z,8.33
2023-01-09T09:47:23.093Z,8.33
2023-01-09T09:48:23.159Z,8.33
2023-01-09T09:49:23.196Z,8.35
2023-01-09T09:50:23.267Z,8.32
2023-01-09T09:51:23.269Z,8.44
2023-01-09T09:52:23.322Z,8.45
2023-01-09T09:53:23.359Z,8.40
2023-01-09T09:54:23.429Z,8.40
2023-01-09T09:55:23.452Z,8.42
2023-01-09T09:56:23.547Z,8.45
2023-01-09T09:57:23.551Z,8.48
2023-01-09T09:58:23.587Z,8.47
2023-01-09T09:59:26.084Z,8.58
2023-01-09T10:00:23.692Z,8.57
2023-01-09T10:01:23.746Z,8.71
2023-01-09T10:02:23.822Z,8.66
2023-01-09T10:03:33.365Z,8.71
2023-01-09T10:04:23.854Z,8.65
2023-01-09T10:05:23.920Z,8.73
2023-01-09T10:06:23.942Z,8.55
2023-01-09T10:07:24.002Z,8.51
2023-01-09T10:08:24.059Z,8.65
2023-01-09T10:09:24.091Z,8.73
2023-01-09T10:10:24.123Z,8.81
2023-01-09T10:11:24.193Z,8.79
2023-01-09T10:12:24.213Z,8.94
2023-01-09T10:13:24.266Z,8.79
2023-01-09T10:14:24.869Z,8.86
2023-01-09T10:15:24.383Z,8.84
2023-01-09T10:16:24.545Z,8.84
2023-01-09T10:17:24.438Z,8.79
2023-01-09T10:18:24.492Z,8.86
2023-01-09T10:19:24.555Z,8.83
2023-01-09T10:20:24.590Z,8.93
2023-01-09T10:21:24.634Z,8.93
2023-01-09T10:22:25.264Z,8.96
2023-01-09T10:23:24.726Z,8.96
2023-01-09T10:24:24.795Z,9.04
2023-01-09T10:25:24.857Z,9.06
2023-01-09T10:26:24.863Z,9.06
2023-01-09T10:27:24.912Z,9.15
2023-01-09T10:28:24.945Z,9.12
2023-01-09T10:29:25.009Z,9.13
2023-01-09T10:30:25.068Z,8.99
2023-01-09T10:31:25.132Z,9.01
2023-01-09T10:32:25.145Z,9.12
2023-01-09T10:33:25.200Z,9.23
2023-01-09T10:34:25.263Z,9.30
2023-01-09T10:35:26.192Z,9.32
2023-01-09T10:36:25.345Z,9.21
2023-01-09T10:37:25.368Z,9.32
2023-01-09T10:38:25.412Z,9.48
2023-01-09T10:39:25.447Z,9.49
2023-01-09T10:40:25.504Z,9.46
2023-01-09T10:41:25.576Z,9.28
2023-01-09T10:42:25.595Z,9.23
2023-01-09T10:43:25.645Z,9.20
2023-01-09T10:44:25.685Z,9.21
2023-01-09T10:45:25.744Z,9.21
2023-01-09T10:46:25.919Z,9.32
2023-01-09T10:47:25.822Z,9.24
2023-01-09T10:48:25.869Z,9.38
2023-01-09T10:49:25.926Z,9.42
2023-01-09T10:50:25.953Z,9.46
2023-01-09T10:51:26.048Z,9.48
2023-01-09T10:52:26.089Z,9.49
2023-01-09T10:53:26.107Z,9.34
2023-01-09T10:54:26.168Z,9.32
2023-01-09T10:55:26.192Z,9.42
2023-01-09T10:56:26.253Z,9.48
2023-01-09T10:57:26.310Z,9.49
2023-01-09T10:58:26.335Z,9.61
2023-01-09T10:59:26.387Z,9.75
2023-01-09T11:00:26.497Z,9.67
2023-01-09T11:01:26.490Z,9.73
2023-01-09T11:02:26.533Z,9.71
2023-01-09T11:03:26.646Z,9.70
2023-01-09T11:04:26.619Z,9.73
2023-01-09T11:05:27.909Z,9.70
2023-01-09T11:06:27.253Z,9.70
2023-01-09T11:07:26.756Z,9.73
2023-01-09T11:08:26.813Z,9.76
2023-01-09T11:09:26.842Z,9.78
2023-01-09T11:10:26.906Z,9.83
2023-01-09T11:11:26.980Z,9.76
2023-01-09T11:12:26.994Z,9.81
2023-01-09T11:13:27.052Z,9.85
2023-01-09T11:14:27.126Z,9.85
2023-01-09T11:15:27.126Z,9.85
2023-01-09T11:16:27.254Z,9.89
2023-01-09T11:17:27.243Z,9.86
2023-01-09T11:18:27.266Z,9.89
2023-01-09T11:19:27.316Z,9.89
2023-01-09T11:20:27.373Z,9.79
2023-01-09T11:21:27.409Z,9.82
2023-01-09T11:22:27.455Z,9.88
2023-01-09T11:23:27.494Z,9.86
2023-01-09T11:24:27.572Z,9.83
2023-01-09T11:25:27.584Z,9.86
2023-01-09T11:26:27.639Z,9.83
2023-01-09T11:27:27.719Z,9.89
2023-01-09T11:28:27.737Z,9.91
2023-01-09T11:29:27.783Z,9.88
2023-01-09T11:30:27.936Z,9.85
2023-01-09T11:31:27.899Z,9.86
2023-01-09T11:32:27.916Z,9.78
2023-01-09T11:33:27.972Z,9.79
2023-01-09T11:34:28.018Z,9.78
2023-01-09T11:35:28.091Z,9.78
2023-01-09T11:36:28.104Z,9.75
2023-01-09T11:37:28.752Z,9.76
2023-01-09T11:38:28.210Z,9.76
2023-01-09T11:39:28.259Z,9.70
2023-01-09T11:40:28.324Z,9.76
2023-01-09T11:41:28.369Z,9.53
2023-01-09T11:42:28.391Z,9.45
2023-01-09T11:43:28.449Z,9.45
2023-01-09T11:44:28.512Z,9.48
2023-01-09T11:45:28.530Z,9.48
2023-01-09T11:46:28.608Z,9.39
2023-01-09T11:47:28.620Z,9.32
2023-01-09T11:48:28.663Z,9.35
2023-01-09T11:49:28.750Z,9.21
2023-01-09T11:50:28.775Z,9.10
2023-01-09T11:51:28.855Z,9.18
2023-01-09T11:52:28.857Z,9.01
2023-01-09T11:53:28.910Z,9.05
2023-01-09T11:54:28.946Z,8.88
2023-01-09T11:55:34.782Z,8.94
2023-01-09T11:56:29.064Z,8.84
2023-01-09T11:57:29.085Z,8.88
2023-01-09T11:58:29.135Z,8.88
2023-01-09T11:59:29.179Z,8.96
2023-01-09T12:00:29.226Z,8.93
2023-01-09T12:01:29.307Z,8.96
2023-01-09T12:02:29.327Z,9.02
2023-01-09T12:03:29.394Z,8.96
2023-01-09T12:04:29.403Z,9.01
2023-01-09T12:05:29.455Z,9.04
2023-01-09T12:06:29.523Z,9.02
2023-01-09T12:07:29.540Z,9.06
2023-01-09T12:08:29.607Z,9.02
2023-01-09T12:09:29.668Z,8.97
2023-01-09T12:10:29.688Z,9.01
2023-01-09T12:11:29.724Z,9.05
2023-01-09T12:12:29.775Z,9.13
2023-01-09T12:13:29.835Z,9.10
2023-01-09T12:14:29.887Z,9.16
2023-01-09T12:15:29.938Z,9.23
2023-01-09T12:16:29.994Z,9.16
2023-01-09T12:17:29.995Z,9.23
2023-01-09T12:18:30.043Z,9.20
2023-01-09T12:19:30.086Z,9.16
2023-01-09T12:20:30.162Z,9.16
2023-01-09T12:21:30.195Z,9.18
2023-01-09T12:22:30.279Z,9.15
2023-01-09T12:23:30.272Z,9.10
2023-01-09T12:24:30.322Z,9.02
2023-01-09T12:25:30.395Z,9.05
2023-01-09T12:26:30.406Z,9.02
2023-01-09T12:27:30.465Z,9.10
2023-01-09T12:28:30.501Z,9.16
2023-01-09T12:29:30.549Z,9.10
2023-01-09T12:30:30.625Z,8.93
2023-01-09T12:31:30.684Z,8.94
2023-01-09T12:32:30.681Z,9.04
2023-01-09T12:33:30.727Z,9.02
2023-01-09T12:34:30.784Z,8.96
2023-01-09T12:35:30.847Z,9.02
2023-01-09T12:36:30.907Z,9.06
2023-01-09T12:37:30.941Z,9.01
2023-01-09T12:38:30.970Z,9.10
2023-01-09T12:39:31.024Z,9.23
2023-01-09T12:40:31.081Z,9.23
2023-01-09T12:41:31.097Z,9.34
2023-01-09T12:42:31.136Z,9.39
2023-01-09T12:43:31.214Z,9.46
2023-01-09T12:44:35.991Z,9.34
2023-01-09T12:45:31.338Z,9.40
2023-01-09T12:46:31.336Z,9.35
2023-01-09T12:47:31.445Z,9.48
2023-01-09T12:48:31.456Z,9.45
2023-01-09T12:49:31.463Z,9.49
2023-01-09T12:50:31.515Z,9.42
2023-01-09T12:51:32.269Z,9.42
2023-01-09T12:52:31.610Z,9.34
2023-01-09T12:53:31.687Z,9.32
2023-01-09T12:54:31.697Z,9.39
2023-01-09T12:55:31.731Z,9.34
2023-01-09T12:56:31.810Z,9.32
2023-01-09T12:57:32.964Z,9.30
2023-01-09T12:58:31.910Z,9.32
2023-01-09T12:59:31.934Z,9.28
2023-01-09T13:00:32.004Z,9.25
2023-01-09T13:01:32.075Z,9.20
2023-01-09T13:02:32.218Z,9.12
2023-01-09T13:03:32.108Z,9.13
2023-01-09T13:04:32.178Z,9.16
2023-01-09T13:05:32.210Z,9.16
2023-01-09T13:06:32.279Z,9.12
2023-01-09T13:07:32.348Z,9.21
2023-01-09T13:08:32.371Z,9.23
2023-01-09T13:09:32.381Z,9.12
2023-01-09T13:10:32.488Z,9.23
2023-01-09T13:11:32.474Z,9.16
2023-01-09T13:12:32.515Z,9.04
2023-01-09T13:13:32.615Z,9.13
2023-01-09T13:14:32.645Z,9.10
2023-01-09T13:15:32.687Z,9.13
2023-01-09T13:16:32.767Z,8.90
2023-01-09T13:17:32.826Z,8.73
2023-01-09T13:18:32.820Z,8.45
2023-01-09T13:19:32.861Z,8.36